createdAt,value
2022-10-11T00:01:20.816Z,15.09
2022-10-11T00:03:47.375Z,15.05
2022-10-11T00:06:14.274Z,15.02
2022-10-11T00:08:41.037Z,15.04
2022-10-11T00:11:08.069Z,14.98
2022-10-11T00:13:35.724Z,15.00
2022-10-11T00:16:08.972Z,14.96
2022-10-11T00:18:36.406Z,14.97
2022-10-11T00:21:09.796Z,14.98
2022-10-11T00:23:36.936Z,14.87
2022-10-11T00:26:05.690Z,14.93
2022-10-11T00:28:32.450Z,14.96
2022-10-11T00:31:18.953Z,14.98
2022-10-11T00:34:05.656Z,14.96
2022-10-11T00:36:52.338Z,14.97
2022-10-11T00:39:38.961Z,14.98
2022-10-11T00:42:25.654Z,14.98
2022-10-11T00:45:27.336Z,14.87
2022-10-11T00:48:02.413Z,14.92
2022-10-11T00:50:33.015Z,14.92
2022-10-11T00:53:03.241Z,14.91
2022-10-11T00:55:37.270Z,14.89
2022-10-11T00:58:04.347Z,14.80
2022-10-11T01:00:30.872Z,14.80
2022-10-11T01:02:57.604Z,14.81
2022-10-11T01:05:31.417Z,14.83
2022-10-11T01:08:00.040Z,14.80
2022-10-11T01:10:28.046Z,14.77
2022-10-11T01:13:26.689Z,14.78
2022-10-11T01:16:15.148Z,14.75
2022-10-11T01:18:47.684Z,14.64
2022-10-11T01:21:26.983Z,14.54
2022-10-11T01:24:08.680Z,14.39
2022-10-11T01:26:45.110Z,14.41
2022-10-11T01:29:32.082Z,14.48
2022-10-11T01:32:18.532Z,14.44
2022-10-11T01:35:02.686Z,14.48
2022-10-11T01:37:38.653Z,14.25
2022-10-11T01:40:13.325Z,14.34
2022-10-11T01:42:43.084Z,14.39
2022-10-11T01:45:14.664Z,14.36
2022-10-11T01:47:42.413Z,14.43
2022-10-11T01:50:37.669Z,14.43
2022-10-11T01:53:40.291Z,14.37
2022-10-11T01:56:36.185Z,14.39
2022-10-11T01:59:40.906Z,14.31
2022-10-11T02:02:25.822Z,14.20
2022-10-11T02:05:23.366Z,14.13
2022-10-11T02:07:57.941Z,14.16
2022-10-11T02:10:40.115Z,14.18
2022-10-11T02:13:13.776Z,14.18
2022-10-11T02:15:41.295Z,14.12
2022-10-11T02:18:14.713Z,14.15
2022-10-11T02:20:44.930Z,14.14
2022-10-11T02:23:20.695Z,14.15
2022-10-11T02:25:48.461Z,14.12
2022-10-11T02:28:20.602Z,14.05
2022-10-11T02:30:50.164Z,13.96
2022-10-11T02:33:23.831Z,14.05
2022-10-11T02:35:58.939Z,13.93
2022-10-11T02:38:31.798Z,13.98
2022-10-11T02:41:36.801Z,14.00
2022-10-11T02:44:08.872Z,13.99
2022-10-11T02:46:37.244Z,13.91
2022-10-11T02:49:04.347Z,13.76
2022-10-11T02:51:31.684Z,13.76
2022-10-11T02:53:58.818Z,13.75
2022-10-11T02:56:25.534Z,13.66
2022-10-11T02:58:52.326Z,13.62
2022-10-11T03:01:19.893Z,13.59
2022-10-11T03:03:46.399Z,13.55
2022-10-11T03:06:12.799Z,13.58
2022-10-11T03:08:39.223Z,13.58
2022-10-11T03:11:05.868Z,13.50
2022-10-11T03:13:32.260Z,13.45
2022-10-11T03:16:03.202Z,13.42
2022-10-11T03:18:34.028Z,13.42
2022-10-11T03:21:00.448Z,13.30
2022-10-11T03:23:26.988Z,13.26
2022-10-11T03:25:53.692Z,13.28
2022-10-11T03:28:21.267Z,13.29
2022-10-11T03:30:49.899Z,13.41
2022-10-11T03:33:17.085Z,13.45
2022-10-11T03:35:45.993Z,13.21
2022-10-11T03:38:14.537Z,13.25
2022-10-11T03:40:43.127Z,13.31
2022-10-11T03:43:10.084Z,13.28
2022-10-11T03:45:36.835Z,13.33
2022-10-11T03:48:03.619Z,13.35
2022-10-11T03:50:31.307Z,13.29
2022-10-11T03:52:57.892Z,13.26
2022-10-11T03:55:24.556Z,13.25
2022-10-11T03:57:51.312Z,13.07
2022-10-11T04:00:17.929Z,13.10
2022-10-11T04:02:44.467Z,13.01
2022-10-11T04:05:12.776Z,12.73
2022-10-11T04:07:41.296Z,12.63
2022-10-11T04:10:08.087Z,12.61
2022-10-11T04:12:37.029Z,12.65
2022-10-11T04:15:04.571Z,12.56
2022-10-11T04:17:30.978Z,12.50
2022-10-11T04:19:57.453Z,12.46
2022-10-11T04:22:24.999Z,12.21
2022-10-11T04:24:52.238Z,12.18
2022-10-11T04:27:18.606Z,12.16
2022-10-11T04:29:44.994Z,12.18
2022-10-11T04:32:11.684Z,12.24
2022-10-11T04:34:38.149Z,12.13
2022-10-11T04:37:04.618Z,12.10
2022-10-11T04:39:31.029Z,12.02
2022-10-11T04:41:57.769Z,12.08
2022-10-11T04:44:24.267Z,12.09
2022-10-11T04:46:50.918Z,12.12
2022-10-11T04:49:17.316Z,12.08
2022-10-11T04:51:43.791Z,11.84
2022-10-11T04:54:10.198Z,11.92
2022-10-11T04:56:36.855Z,11.96
2022-10-11T04:59:03.456Z,12.01
2022-10-11T05:01:29.896Z,11.96
2022-10-11T05:03:56.633Z,11.88
2022-10-11T05:06:23.020Z,11.84
2022-10-11T05:08:50.204Z,11.78
2022-10-11T05:11:17.772Z,11.83
2022-10-11T05:13:45.871Z,11.78
2022-10-11T05:16:13.787Z,11.69
2022-10-11T05:18:40.810Z,11.51
2022-10-11T05:21:19.845Z,11.63
2022-10-11T05:23:47.957Z,11.61
2022-10-11T05:26:15.056Z,11.66
2022-10-11T05:28:41.823Z,11.64
2022-10-11T05:31:08.423Z,11.69
2022-10-11T05:33:35.188Z,11.57
2022-10-11T05:36:02.273Z,11.42
2022-10-11T05:38:29.168Z,11.48
2022-10-11T05:40:59.661Z,11.49
2022-10-11T05:43:26.396Z,11.40
2022-10-11T05:45:53.031Z,11.36
2022-10-11T05:48:19.523Z,11.18
2022-10-11T05:50:46.481Z,11.08
2022-10-11T05:53:13.344Z,11.15
2022-10-11T05:55:42.159Z,11.19
2022-10-11T05:58:12.921Z,11.18
2022-10-11T06:00:39.803Z,11.09
2022-10-11T06:03:08.225Z,11.05
2022-10-11T06:05:35.811Z,11.12
2022-10-11T06:08:03.560Z,10.78
2022-10-11T06:10:29.959Z,10.89
2022-10-11T06:12:56.884Z,10.93
2022-10-11T06:15:23.644Z,10.96
2022-10-11T06:17:50.387Z,10.98
2022-10-11T06:20:16.837Z,10.86
2022-10-11T06:22:43.713Z,10.99
2022-10-11T06:25:10.542Z,10.94
2022-10-11T06:27:37.422Z,10.96
2022-10-11T06:30:05.398Z,11.04
2022-10-11T06:32:32.216Z,11.11
2022-10-11T06:34:59.140Z,11.11
2022-10-11T06:37:25.603Z,11.00
2022-10-11T06:39:52.067Z,11.01
2022-10-11T06:42:18.714Z,10.96
2022-10-11T06:44:45.190Z,11.01
2022-10-11T06:47:11.565Z,10.98
2022-10-11T06:49:38.432Z,11.08
2022-10-11T06:52:05.057Z,10.93
2022-10-11T06:54:31.763Z,10.96
2022-10-11T06:56:58.499Z,11.08
2022-10-11T06:59:24.922Z,11.11
2022-10-11T07:01:51.554Z,11.07
2022-10-11T07:04:18.093Z,10.99
2022-10-11T07:06:44.764Z,11.16
2022-10-11T07:09:11.874Z,11.26
2022-10-11T07:11:38.736Z,11.33
2022-10-11T07:14:08.134Z,11.43
2022-10-11T07:16:38.066Z,11.44
2022-10-11T07:19:06.708Z,11.38
2022-10-11T07:21:35.010Z,11.26
2022-10-11T07:24:02.692Z,11.43
2022-10-11T07:26:36.653Z,11.45
2022-10-11T07:29:05.129Z,11.58
2022-10-11T07:31:31.835Z,11.54
2022-10-11T07:33:58.449Z,11.42
2022-10-11T07:36:25.731Z,11.64
2022-10-11T07:38:52.384Z,11.75
2022-10-11T07:41:19.614Z,11.71
2022-10-11T07:43:49.715Z,11.66
2022-10-11T07:46:18.264Z,11.67
2022-10-11T07:48:44.969Z,11.54
2022-10-11T07:51:14.393Z,11.50
2022-10-11T07:53:44.803Z,11.61
2022-10-11T07:56:13.545Z,11.54
2022-10-11T07:58:41.175Z,11.64
2022-10-11T08:01:08.896Z,11.81
2022-10-11T08:03:35.824Z,11.73
2022-10-11T08:06:11.123Z,11.87
2022-10-11T08:08:37.867Z,11.74
2022-10-11T08:11:04.894Z,11.72
2022-10-11T08:13:32.021Z,11.83
2022-10-11T08:15:58.440Z,12.03
2022-10-11T08:18:25.505Z,12.19
2022-10-11T08:20:52.548Z,12.48
2022-10-11T08:23:20.158Z,12.58
2022-10-11T08:25:48.071Z,12.89
2022-10-11T08:28:17.300Z,13.24
2022-10-11T08:30:50.919Z,13.13
2022-10-11T08:33:18.911Z,13.23
2022-10-11T08:35:46.088Z,13.19
2022-10-11T08:38:12.610Z,13.23
2022-10-11T08:40:46.458Z,13.54
2022-10-11T08:43:28.066Z,13.76
2022-10-11T08:45:57.774Z,14.11
2022-10-11T08:48:38.399Z,14.57
2022-10-11T08:51:08.972Z,14.23
2022-10-11T08:53:51.467Z,14.16
2022-10-11T08:56:18.808Z,13.94
2022-10-11T08:58:52.582Z,14.16
2022-10-11T09:01:24.736Z,14.26
2022-10-11T09:03:52.061Z,14.40
2022-10-11T09:06:35.234Z,14.53
2022-10-11T09:09:16.059Z,14.06
2022-10-11T09:12:10.411Z,14.32
2022-10-11T09:14:40.314Z,14.32
2022-10-11T09:17:34.255Z,14.59
2022-10-11T09:20:15.950Z,15.05
2022-10-11T09:23:07.356Z,15.09
2022-10-11T09:25:44.235Z,15.25
2022-10-11T09:28:10.803Z,15.27
2022-10-11T09:30:46.715Z,15.48
2022-10-11T09:33:20.781Z,15.16
2022-10-11T09:35:50.363Z,14.96
2022-10-11T09:38:40.996Z,14.89
2022-10-11T09:41:36.409Z,14.93
2022-10-11T09:44:06.498Z,15.28
2022-10-11T09:46:41.367Z,15.27
2022-10-11T09:49:13.232Z,15.49
2022-10-11T09:51:43.720Z,15.42
2022-10-11T09:54:10.827Z,15.66
2022-10-11T09:56:45.695Z,15.82
2022-10-11T09:59:28.993Z,15.83
2022-10-11T10:02:21.016Z,15.64
2022-10-11T10:04:53.915Z,15.57
2022-10-11T10:07:20.899Z,15.85
2022-10-11T10:09:47.511Z,16.11
2022-10-11T10:12:20.478Z,16.59
2022-10-11T10:15:07.054Z,16.70
2022-10-11T10:17:35.753Z,16.82
2022-10-11T10:20:05.609Z,16.88
2022-10-11T10:22:35.295Z,16.99
2022-10-11T10:25:07.357Z,16.55
2022-10-11T10:27:34.177Z,16.89
2022-10-11T10:30:09.918Z,17.73
2022-10-11T10:32:52.525Z,17.32
2022-10-11T10:35:25.547Z,17.34
2022-10-11T10:38:10.211Z,17.12
2022-10-11T10:40:41.788Z,17.40
2022-10-11T10:43:18.070Z,17.74
2022-10-11T10:46:05.586Z,17.23
2022-10-11T10:49:34.907Z,17.50
2022-10-11T10:52:15.227Z,18.13
2022-10-11T10:55:03.403Z,18.04
2022-10-11T10:57:44.250Z,17.99
2022-10-11T11:00:17.324Z,18.22
2022-10-11T11:02:48.972Z,18.71
2022-10-11T11:05:53.638Z,18.30
2022-10-11T11:08:39.018Z,18.38
2022-10-11T11:11:17.748Z,18.70
2022-10-11T11:14:02.591Z,18.73
2022-10-11T11:16:31.934Z,19.11
2022-10-11T11:19:04.487Z,19.05
2022-10-11T11:21:54.243Z,19.22
2022-10-11T11:24:52.004Z,19.44
2022-10-11T11:27:40.915Z,19.82
2022-10-11T11:30:20.472Z,20.30
2022-10-11T11:33:21.529Z,20.03
2022-10-11T11:35:55.729Z,19.51
2022-10-11T11:38:43.995Z,20.12
2022-10-11T11:41:18.029Z,20.73
2022-10-11T11:44:01.572Z,20.68
2022-10-11T11:46:40.144Z,20.28
2022-10-11T11:49:17.082Z,20.29
2022-10-11T11:51:46.210Z,19.93
2022-10-11T11:54:28.153Z,20.39
2022-10-11T11:57:12.951Z,20.68
2022-10-11T11:59:50.216Z,19.93
2022-10-11T12:02:44.729Z,20.39
2022-10-11T12:05:15.596Z,20.32
2022-10-11T12:07:59.421Z,20.86
2022-10-11T12:10:54.386Z,20.44
2022-10-11T12:13:36.386Z,20.80
2022-10-11T12:16:12.876Z,19.81
2022-10-11T12:18:55.799Z,19.98
2022-10-11T12:21:38.796Z,19.84
2022-10-11T12:24:20.659Z,19.83
2022-10-11T12:26:49.580Z,20.33
2022-10-11T12:29:20.137Z,20.20
2022-10-11T12:31:51.298Z,20.93
2022-10-11T12:34:34.373Z,20.27
2022-10-11T12:37:21.041Z,20.46
2022-10-11T12:39:51.007Z,20.94
2022-10-11T12:42:29.107Z,20.98
2022-10-11T12:45:10.833Z,21.01
2022-10-11T12:48:02.282Z,20.44
2022-10-11T12:50:47.064Z,20.94
2022-10-11T12:53:32.393Z,21.44
2022-10-11T12:56:05.965Z,21.52
2022-10-11T12:58:38.672Z,21.36
2022-10-11T13:01:17.362Z,21.49
2022-10-11T13:04:09.727Z,21.15
2022-10-11T13:06:53.381Z,21.42
2022-10-11T13:09:31.562Z,21.31
2022-10-11T13:12:09.137Z,21.89
2022-10-11T13:14:42.111Z,21.40
2022-10-11T13:17:25.825Z,21.56
2022-10-11T13:20:01.946Z,21.46
2022-10-11T13:22:29.195Z,21.66
2022-10-11T13:24:59.604Z,21.66
2022-10-11T13:27:27.320Z,21.83
2022-10-11T13:29:59.201Z,21.70
2022-10-11T13:32:29.506Z,21.92
2022-10-11T13:34:57.640Z,22.35
2022-10-11T13:37:26.913Z,22.55
2022-10-11T13:39:55.298Z,22.46
2022-10-11T13:42:28.183Z,22.41
2022-10-11T13:44:55.099Z,22.45
2022-10-11T13:47:26.926Z,22.14
2022-10-11T13:50:09.136Z,22.23
2022-10-11T13:52:35.705Z,22.30
2022-10-11T13:55:05.850Z,22.14
2022-10-11T13:57:49.920Z,22.54
2022-10-11T14:00:17.358Z,21.76
2022-10-11T14:02:51.683Z,22.30
2022-10-11T14:05:34.465Z,22.41
2022-10-11T14:08:05.399Z,22.51
2022-10-11T14:10:32.873Z,22.99
2022-10-11T14:13:06.108Z,22.00
2022-10-11T14:15:36.455Z,22.20
2022-10-11T14:18:34.457Z,22.49
2022-10-11T14:21:19.078Z,21.72
2022-10-11T14:24:10.312Z,21.68
2022-10-11T14:26:39.428Z,20.94
2022-10-11T14:29:17.378Z,21.15
2022-10-11T14:31:44.141Z,20.76
2022-10-11T14:34:19.769Z,21.03
2022-10-11T14:36:46.597Z,20.95
2022-10-11T14:39:20.339Z,21.04
2022-10-11T14:41:47.150Z,21.01
2022-10-11T14:44:14.093Z,20.72
2022-10-11T14:46:41.522Z,20.46
2022-10-11T14:49:14.576Z,20.69
2022-10-11T14:51:42.950Z,20.92
2022-10-11T14:54:09.602Z,20.71
2022-10-11T14:56:36.258Z,20.43
2022-10-11T14:59:02.767Z,20.69
2022-10-11T15:01:29.217Z,20.72
2022-10-11T15:03:55.865Z,20.16
2022-10-11T15:06:26.903Z,19.79
2022-10-11T15:08:53.309Z,19.78
2022-10-11T15:11:21.436Z,19.82
2022-10-11T15:13:48.525Z,19.43
2022-10-11T15:16:19.080Z,19.20
2022-10-11T15:18:52.838Z,18.89
2022-10-11T15:21:23.027Z,19.25
2022-10-11T15:23:51.066Z,19.03
2022-10-11T15:26:24.526Z,18.47
2022-10-11T15:28:53.200Z,17.99
2022-10-11T15:31:19.909Z,18.14
2022-10-11T15:33:47.128Z,18.34
2022-10-11T15:36:19.625Z,18.26
2022-10-11T15:38:47.287Z,18.00
2022-10-11T15:41:15.602Z,18.17
2022-10-11T15:43:43.423Z,18.17
2022-10-11T15:46:15.900Z,17.68
2022-10-11T15:48:42.298Z,17.51
2022-10-11T15:51:08.863Z,17.52
2022-10-11T15:53:35.675Z,17.36
2022-10-11T15:56:06.487Z,17.47
2022-10-11T15:58:35.797Z,17.36
2022-10-11T16:01:09.005Z,17.19
2022-10-11T16:03:36.117Z,17.22
2022-10-11T16:06:05.494Z,17.04
2022-10-11T16:08:33.385Z,17.05
2022-10-11T16:10:59.958Z,17.06
2022-10-11T16:13:26.409Z,16.69
2022-10-11T16:15:53.419Z,16.53
2022-10-11T16:18:20.888Z,16.60
2022-10-11T16:20:49.944Z,16.27
2022-10-11T16:23:16.733Z,16.12
2022-10-11T16:25:43.356Z,16.01
2022-10-11T16:28:11.181Z,16.00
2022-10-11T16:30:43.871Z,16.18
2022-10-11T16:33:10.445Z,16.05
2022-10-11T16:35:41.467Z,15.73
2022-10-11T16:38:08.442Z,15.88
2022-10-11T16:40:36.463Z,15.90
2022-10-11T16:43:07.504Z,15.77
2022-10-11T16:45:35.375Z,15.84
2022-10-11T16:48:02.180Z,15.67
2022-10-11T16:50:29.200Z,15.74
2022-10-11T16:52:56.107Z,15.71
2022-10-11T16:55:23.216Z,15.60
2022-10-11T16:57:49.771Z,15.63
2022-10-11T17:00:17.038Z,15.65
2022-10-11T17:02:43.817Z,15.62
2022-10-11T17:05:10.306Z,15.44
2022-10-11T17:07:37.364Z,15.20
2022-10-11T17:10:04.971Z,14.96
2022-10-11T17:12:32.771Z,14.96
2022-10-11T17:14:59.183Z,14.84
2022-10-11T17:17:26.864Z,14.76
2022-10-11T17:19:53.323Z,14.56
2022-10-11T17:22:20.433Z,14.68
2022-10-11T17:24:46.987Z,14.81
2022-10-11T17:27:14.141Z,14.48
2022-10-11T17:29:40.825Z,14.43
2022-10-11T17:32:07.687Z,14.10
2022-10-11T17:34:34.370Z,14.24
2022-10-11T17:37:00.976Z,14.09
2022-10-11T17:39:27.594Z,14.24
2022-10-11T17:41:54.638Z,14.10
2022-10-11T17:44:22.043Z,13.92
2022-10-11T17:46:48.868Z,14.16
2022-10-11T17:49:15.875Z,13.98
2022-10-11T17:51:43.344Z,13.76
2022-10-11T17:54:12.858Z,13.90
2022-10-11T17:56:41.293Z,13.81
2022-10-11T17:59:14.322Z,13.80
2022-10-11T18:01:41.709Z,13.93
2022-10-11T18:04:13.196Z,13.86
2022-10-11T18:06:40.086Z,13.70
2022-10-11T18:09:07.130Z,13.72
2022-10-11T18:11:33.757Z,13.59
2022-10-11T18:14:00.717Z,13.44
2022-10-11T18:16:29.119Z,13.55
2022-10-11T18:18:57.357Z,13.40
2022-10-11T18:21:33.598Z,13.40
2022-10-11T18:24:02.950Z,13.29
2022-10-11T18:26:30.607Z,13.38
2022-10-11T18:28:58.076Z,13.11
2022-10-11T18:31:28.808Z,13.03
2022-10-11T18:33:55.534Z,12.91
2022-10-11T18:36:25.232Z,12.95
2022-10-11T18:39:02.744Z,12.89
2022-10-11T18:41:32.205Z,12.93
2022-10-11T18:44:01.366Z,12.92
2022-10-11T18:46:28.364Z,13.03
2022-10-11T18:48:56.217Z,12.92
2022-10-11T18:51:27.963Z,12.93
2022-10-11T18:53:55.460Z,12.88
2022-10-11T18:56:26.710Z,12.78
2022-10-11T18:58:54.919Z,12.87
2022-10-11T19:01:28.077Z,12.66
2022-10-11T19:03:56.775Z,12.75
2022-10-11T19:06:38.696Z,12.70
2022-10-11T19:09:17.731Z,12.68
2022-10-11T19:11:45.185Z,12.58
2022-10-11T19:14:14.661Z,12.48
2022-10-11T19:16:45.510Z,12.38
2022-10-11T19:19:12.578Z,12.15
2022-10-11T19:21:40.175Z,12.16
2022-10-11T19:24:06.976Z,12.00
2022-10-11T19:26:39.506Z,12.05
2022-10-11T19:29:08.960Z,11.84
2022-10-11T19:31:40.688Z,11.86
2022-10-11T19:34:07.145Z,11.98
2022-10-11T19:36:36.615Z,11.97
2022-10-11T19:39:04.686Z,11.92
2022-10-11T19:41:31.866Z,12.02
2022-10-11T19:43:58.506Z,11.78
2022-10-11T19:49:15.697Z,11.92
2022-10-11T19:51:42.179Z,11.97
2022-10-11T19:54:11.888Z,11.93
2022-10-11T19:56:38.678Z,11.97
2022-10-11T19:59:08.724Z,11.98
2022-10-11T20:01:36.488Z,11.92
2022-10-11T20:04:08.295Z,11.72
2022-10-11T20:06:38.649Z,11.55
2022-10-11T20:09:28.000Z,11.66
2022-10-11T20:11:52.578Z,11.71
2022-10-11T20:14:18.986Z,11.72
2022-10-11T20:16:45.389Z,11.56
2022-10-11T20:19:11.994Z,11.65
2022-10-11T20:21:38.752Z,11.43
2022-10-11T20:24:08.291Z,11.57
2022-10-11T20:26:35.566Z,11.55
2022-10-11T20:29:02.224Z,11.48
2022-10-11T20:31:32.768Z,11.49
2022-10-11T20:34:01.757Z,11.51
2022-10-11T20:36:30.032Z,11.36
2022-10-11T20:38:58.138Z,11.00
2022-10-11T20:41:27.782Z,11.23
2022-10-11T20:43:56.192Z,11.25
2022-10-11T20:46:25.404Z,11.16
2022-10-11T20:49:01.635Z,11.08
2022-10-11T20:51:31.403Z,10.97
2022-10-11T20:53:59.334Z,10.83
2022-10-11T20:56:26.606Z,10.97
2022-10-11T20:58:55.477Z,11.04
2022-10-11T21:01:31.539Z,10.92
2022-10-11T21:03:59.505Z,10.97
2022-10-11T21:06:26.614Z,10.92
2022-10-11T21:08:55.736Z,10.88
2022-10-11T21:11:25.838Z,10.81
2022-10-11T21:13:56.312Z,10.82
2022-10-11T21:16:22.915Z,10.92
2022-10-11T21:18:54.117Z,10.86
2022-10-11T21:21:21.162Z,10.73
2022-10-11T21:23:47.815Z,10.71
2022-10-11T21:26:17.797Z,10.63
2022-10-11T21:28:45.359Z,10.71
2022-10-11T21:31:14.715Z,10.76
2022-10-11T21:33:43.110Z,10.77
2022-10-11T21:36:12.536Z,10.79
2022-10-11T21:38:39.341Z,10.74
2022-10-11T21:41:08.655Z,10.71
2022-10-11T21:43:38.059Z,10.75
2022-10-11T21:46:14.165Z,10.74
2022-10-11T21:48:40.795Z,10.68
2022-10-11T21:51:12.095Z,10.65
2022-10-11T21:53:38.461Z,10.63
2022-10-11T21:56:05.165Z,10.69
2022-10-11T21:58:31.535Z,10.71
2022-10-11T22:00:58.442Z,10.62
2022-10-11T22:03:26.159Z,10.67
2022-10-11T22:05:52.863Z,10.59
2022-10-11T22:08:20.066Z,10.70
2022-10-11T22:10:54.126Z,10.63
2022-10-11T22:13:20.808Z,10.55
2022-10-11T22:15:47.476Z,10.50
2022-10-11T22:18:13.976Z,10.57
2022-10-11T22:20:40.506Z,10.44
2022-10-11T22:23:06.883Z,10.34
2022-10-11T22:25:38.192Z,10.33
2022-10-11T22:28:05.624Z,10.38
2022-10-11T22:30:32.788Z,10.38
2022-10-11T22:32:59.236Z,10.35
2022-10-11T22:35:25.994Z,10.34
2022-10-11T22:37:52.690Z,10.28
2022-10-11T22:40:19.987Z,10.26
2022-10-11T22:42:46.644Z,10.15
2022-10-11T22:45:13.362Z,10.21
2022-10-11T22:47:39.732Z,10.13
2022-10-11T22:50:06.574Z,9.95
2022-10-11T22:52:33.226Z,10.00
2022-10-11T22:54:59.700Z,9.90
2022-10-11T22:57:26.139Z,9.84
2022-10-11T22:59:52.956Z,9.93
2022-10-11T23:02:19.323Z,9.89
2022-10-11T23:04:46.034Z,9.79
2022-10-11T23:07:12.639Z,9.76
2022-10-11T23:09:39.522Z,9.88
2022-10-11T23:12:06.290Z,9.92
2022-10-11T23:14:33.683Z,9.96
2022-10-11T23:17:00.395Z,9.91
2022-10-11T23:19:27.202Z,9.94
2022-10-11T23:21:53.864Z,9.88
2022-10-11T23:24:20.270Z,9.92
2022-10-11T23:26:47.179Z,9.85
2022-10-11T23:29:13.624Z,9.90
2022-10-11T23:31:40.384Z,9.86
2022-10-11T23:34:06.893Z,9.94
2022-10-11T23:36:33.492Z,9.72
2022-10-11T23:39:00.400Z,9.77
2022-10-11T23:41:29.216Z,9.71
2022-10-11T23:43:56.261Z,9.73
2022-10-11T23:46:23.697Z,9.71
2022-10-11T23:48:50.329Z,9.71
2022-10-11T23:51:16.979Z,9.73
2022-10-11T23:53:43.697Z,9.72
2022-10-11T23:56:11.499Z,9.63
2022-10-11T23:58:39.056Z,9.67
